createdAt,value
2019-02-05T00:00:37.368Z,73.62
2019-02-05T00:03:12.257Z,74.14
2019-02-05T00:05:40.837Z,74.78
2019-02-05T00:08:09.910Z,75.43
2019-02-05T00:10:38.604Z,74.64
2019-02-05T00:13:07.234Z,74.37
2019-02-05T00:15:36.024Z,73.85
2019-02-05T00:18:04.913Z,74.58
2019-02-05T00:20:33.535Z,74.46
2019-02-05T00:23:02.104Z,74.79
2019-02-05T00:25:30.730Z,74.60
2019-02-05T00:27:59.338Z,75.15
2019-02-05T00:30:28.327Z,75.72
2019-02-05T00:32:56.953Z,74.81
2019-02-05T00:35:25.549Z,75.28
2019-02-05T00:37:54.174Z,74.74
2019-02-05T00:40:23.785Z,74.50
2019-02-05T00:42:53.335Z,74.72
2019-02-05T00:45:22.295Z,74.87
2019-02-05T00:47:50.962Z,75.36
2019-02-05T00:50:20.035Z,74.99
2019-02-05T00:52:48.790Z,75.65
2019-02-05T00:55:20.973Z,74.71
2019-02-05T00:57:49.969Z,75.18
2019-02-05T01:00:27.305Z,74.54
2019-02-05T01:02:56.316Z,74.76
2019-02-05T01:05:25.198Z,76.03
2019-02-05T01:07:53.963Z,75.45
2019-02-05T01:10:23.960Z,74.53
2019-02-05T01:12:53.041Z,74.46
2019-02-05T01:15:23.622Z,74.27
2019-02-05T01:17:52.348Z,74.51
2019-02-05T01:20:22.629Z,74.35
2019-02-05T01:22:51.556Z,74.97
2019-02-05T01:25:20.957Z,75.00
2019-02-05T01:27:50.043Z,74.60
2019-02-05T01:30:21.888Z,75.03
2019-02-05T01:32:50.559Z,75.49
2019-02-05T01:35:19.380Z,75.33
2019-02-05T01:37:48.039Z,75.92
2019-02-05T01:40:18.854Z,75.55
2019-02-05T01:42:47.542Z,76.54
2019-02-05T01:45:18.510Z,75.19
2019-02-05T01:47:47.364Z,74.63
2019-02-05T01:50:18.758Z,74.55
2019-02-05T01:52:47.312Z,74.97
2019-02-05T01:55:16.138Z,75.97
2019-02-05T01:57:44.929Z,75.74
2019-02-05T02:00:19.291Z,76.33
2019-02-05T02:02:48.006Z,76.50
2019-02-05T02:05:16.904Z,76.48
2019-02-05T02:07:46.149Z,77.03
2019-02-05T02:10:17.872Z,76.28
2019-02-05T02:12:46.541Z,76.29
2019-02-05T02:15:15.235Z,76.18
2019-02-05T02:17:43.859Z,77.39
2019-02-05T02:20:17.483Z,75.78
2019-02-05T02:22:46.782Z,75.50
2019-02-05T02:25:15.791Z,76.27
2019-02-05T02:27:44.613Z,76.67
2019-02-05T02:30:16.135Z,76.91
2019-02-05T02:32:44.671Z,76.64
2019-02-05T02:35:13.993Z,76.80
2019-02-05T02:37:42.516Z,76.61
2019-02-05T02:40:12.085Z,76.45
2019-02-05T02:42:40.867Z,76.97
2019-02-05T02:45:12.323Z,76.63
2019-02-05T02:47:40.969Z,76.54
2019-02-05T02:50:12.488Z,76.50
2019-02-05T02:52:41.125Z,77.48
2019-02-05T02:55:10.061Z,79.53
2019-02-05T02:57:38.688Z,76.85
2019-02-05T03:00:13.086Z,76.26
2019-02-05T03:02:41.669Z,76.38
2019-02-05T03:05:12.679Z,77.05
2019-02-05T03:07:41.395Z,77.74
2019-02-05T03:10:15.711Z,77.59
2019-02-05T03:12:44.282Z,76.95
2019-02-05T03:15:12.880Z,77.27
2019-02-05T03:17:41.445Z,76.62
2019-02-05T03:20:13.193Z,77.14
2019-02-05T03:22:44.973Z,77.05
2019-02-05T03:25:17.467Z,77.38
2019-02-05T03:27:46.363Z,77.51
2019-02-05T03:30:17.494Z,79.18
2019-02-05T03:32:46.275Z,77.04
2019-02-05T03:35:15.333Z,76.51
2019-02-05T03:37:44.094Z,77.04
2019-02-05T03:40:30.769Z,76.75
2019-02-05T03:42:59.775Z,78.44
2019-02-05T03:45:29.713Z,77.82
2019-02-05T03:48:03.829Z,77.45
2019-02-05T03:50:38.143Z,77.74
2019-02-05T03:53:21.761Z,77.39
2019-02-05T03:55:55.947Z,77.15
2019-02-05T03:58:39.201Z,76.80
2019-02-05T04:01:19.763Z,76.69
2019-02-05T04:03:51.288Z,76.89
2019-02-05T04:06:28.574Z,78.72
2019-02-05T04:09:35.034Z,76.80
2019-02-05T04:12:25.097Z,76.83
2019-02-05T04:14:59.578Z,76.52
2019-02-05T04:17:39.741Z,76.51
2019-02-05T04:20:29.604Z,76.98
2019-02-05T04:23:03.904Z,77.32
2019-02-05T04:25:41.084Z,77.47
2019-02-05T04:28:18.259Z,77.35
2019-02-05T04:30:58.552Z,77.22
2019-02-05T04:33:39.149Z,76.98
2019-02-05T04:36:25.777Z,77.36
2019-02-05T04:39:09.191Z,76.82
2019-02-05T04:41:46.617Z,77.59
2019-02-05T04:44:21.056Z,77.34
2019-02-05T04:47:01.795Z,76.52
2019-02-05T04:49:42.113Z,75.44
2019-02-05T04:52:28.684Z,75.90
2019-02-05T04:55:00.382Z,77.05
2019-02-05T04:57:40.687Z,76.97
2019-02-05T05:00:45.520Z,76.67
2019-02-05T05:03:22.499Z,76.99
2019-02-05T05:06:02.879Z,77.10
2019-02-05T05:08:49.112Z,77.32
2019-02-05T05:11:17.813Z,77.52
2019-02-05T05:13:46.591Z,76.99
2019-02-05T05:16:15.188Z,77.54
2019-02-05T05:18:43.660Z,80.83
2019-02-05T05:21:12.872Z,76.49
2019-02-05T05:23:41.558Z,75.67
2019-02-05T05:26:10.257Z,76.45
2019-02-05T05:28:41.823Z,76.45
2019-02-05T05:31:10.456Z,77.76
2019-02-05T05:33:39.107Z,76.83
2019-02-05T05:36:07.748Z,76.53
2019-02-05T05:38:36.325Z,76.54
2019-02-05T05:41:04.921Z,76.02
2019-02-05T05:43:34.009Z,76.55
2019-02-05T05:46:02.647Z,77.13
2019-02-05T05:48:31.151Z,76.63
2019-02-05T05:50:59.687Z,76.34
2019-02-05T05:53:28.351Z,78.36
2019-02-05T05:55:57.082Z,76.81
2019-02-05T05:58:25.676Z,75.79
2019-02-05T06:00:54.461Z,75.98
2019-02-05T06:03:23.059Z,75.28
2019-02-05T06:05:51.628Z,75.76
2019-02-05T06:08:20.214Z,76.65
2019-02-05T06:10:48.853Z,76.89
2019-02-05T06:13:17.534Z,77.25
2019-02-05T06:15:46.032Z,77.10
2019-02-05T06:18:14.966Z,77.00
2019-02-05T06:20:43.469Z,76.99
2019-02-05T06:23:12.077Z,77.00
2019-02-05T06:25:40.693Z,76.46
2019-02-05T06:28:09.324Z,76.28
2019-02-05T06:30:37.820Z,76.47
2019-02-05T06:33:06.450Z,75.47
2019-02-05T06:35:35.402Z,74.72
2019-02-05T06:38:04.026Z,76.13
2019-02-05T06:40:32.631Z,76.13
2019-02-05T06:43:01.148Z,76.56
2019-02-05T06:45:30.019Z,76.87
2019-02-05T06:47:58.665Z,76.62
2019-02-05T06:50:27.248Z,76.28
2019-02-05T06:52:56.050Z,76.70
2019-02-05T06:55:24.622Z,76.51
2019-02-05T06:57:53.257Z,76.22
2019-02-05T07:00:23.377Z,76.15
2019-02-05T07:02:53.178Z,76.18
2019-02-05T07:05:21.902Z,77.85
2019-02-05T07:07:50.690Z,77.11
2019-02-05T07:10:24.172Z,75.75
2019-02-05T07:12:52.813Z,76.41
2019-02-05T07:15:21.431Z,76.10
2019-02-05T07:17:50.495Z,76.23
2019-02-05T07:20:19.134Z,76.56
2019-02-05T07:22:47.736Z,76.06
2019-02-05T07:25:21.487Z,76.39
2019-02-05T07:27:50.057Z,76.37
2019-02-05T07:30:23.782Z,76.44
2019-02-05T07:32:52.385Z,76.01
2019-02-05T07:35:21.563Z,76.63
2019-02-05T07:37:50.349Z,76.79
2019-02-05T07:40:21.501Z,77.22
2019-02-05T07:42:50.137Z,77.26
2019-02-05T07:45:20.753Z,75.66
2019-02-05T07:47:49.586Z,75.74
2019-02-05T07:50:26.253Z,76.58
2019-02-05T07:52:55.272Z,76.30
2019-02-05T07:55:24.270Z,77.35
2019-02-05T07:57:52.992Z,77.59
2019-02-05T08:00:27.570Z,76.89
2019-02-05T08:02:56.458Z,77.61
2019-02-05T08:05:31.260Z,77.14
2019-02-05T08:08:00.307Z,77.20
2019-02-05T08:10:29.269Z,76.20
2019-02-05T08:12:57.910Z,76.77
2019-02-05T08:15:28.692Z,77.18
2019-02-05T08:17:57.316Z,77.31
2019-02-05T08:20:26.027Z,76.17
2019-02-05T08:22:54.844Z,75.36
2019-02-05T08:25:23.466Z,75.91
2019-02-05T08:27:52.664Z,76.04
2019-02-05T08:30:24.431Z,76.78
2019-02-05T08:32:53.072Z,77.13
2019-02-05T08:35:21.791Z,76.64
2019-02-05T08:37:50.998Z,76.66
2019-02-05T08:40:22.085Z,76.66
2019-02-05T08:42:50.687Z,76.84
2019-02-05T08:45:37.031Z,76.53
2019-02-05T08:48:07.816Z,76.64
2019-02-05T08:50:36.714Z,76.81
2019-02-05T08:53:05.427Z,76.81
2019-02-05T08:55:33.937Z,76.60
2019-02-05T08:58:08.051Z,75.41
2019-02-05T09:00:38.831Z,75.08
2019-02-05T09:03:09.324Z,74.24
2019-02-05T09:05:38.107Z,75.07
2019-02-05T09:08:07.036Z,75.07
2019-02-05T09:10:38.305Z,75.89
2019-02-05T09:13:06.897Z,75.77
2019-02-05T09:15:35.512Z,75.24
2019-02-05T09:18:05.103Z,75.04
2019-02-05T09:20:33.737Z,75.07
2019-02-05T09:23:02.326Z,75.32
2019-02-05T09:25:30.916Z,75.67
2019-02-05T09:27:59.735Z,75.93
2019-02-05T09:30:33.632Z,76.40
2019-02-05T09:33:04.683Z,74.64
2019-02-05T09:35:33.302Z,74.98
2019-02-05T09:38:02.005Z,74.50
2019-02-05T09:40:32.313Z,73.82
2019-02-05T09:43:01.026Z,74.69
2019-02-05T09:45:31.487Z,74.77
2019-02-05T09:48:00.878Z,75.15
2019-02-05T09:50:30.896Z,74.84
2019-02-05T09:53:00.320Z,75.39
2019-02-05T09:55:28.954Z,75.77
2019-02-05T09:57:57.661Z,75.72
2019-02-05T10:00:28.545Z,75.22
2019-02-05T10:02:57.732Z,75.11
2019-02-05T10:05:28.971Z,76.13
2019-02-05T10:07:57.664Z,73.79
2019-02-05T10:10:26.311Z,74.15
2019-02-05T10:12:54.926Z,73.23
2019-02-05T10:15:26.174Z,73.34
2019-02-05T10:17:54.686Z,74.54
2019-02-05T10:20:24.299Z,73.99
2019-02-05T10:22:53.675Z,74.53
2019-02-05T10:25:22.328Z,74.53
2019-02-05T10:27:50.967Z,74.15
2019-02-05T10:30:22.353Z,74.10
2019-02-05T10:32:51.010Z,74.31
2019-02-05T10:35:19.875Z,74.91
2019-02-05T10:37:48.772Z,74.39
2019-02-05T10:40:17.802Z,74.40
2019-02-05T10:42:46.507Z,75.41
2019-02-05T10:45:21.749Z,73.84
2019-02-05T10:47:50.363Z,73.80
2019-02-05T10:50:19.985Z,73.33
2019-02-05T10:52:48.598Z,73.31
2019-02-05T10:55:19.083Z,72.98
2019-02-05T10:57:49.321Z,73.83
2019-02-05T11:00:23.391Z,74.17
2019-02-05T11:02:52.122Z,74.15
2019-02-05T11:05:22.849Z,73.88
2019-02-05T11:07:51.429Z,73.56
2019-02-05T11:10:20.122Z,73.58
2019-02-05T11:12:48.705Z,73.83
2019-02-05T11:15:25.818Z,73.41
2019-02-05T11:17:54.637Z,74.53
2019-02-05T11:20:25.167Z,73.71
2019-02-05T11:22:53.792Z,72.98
2019-02-05T11:25:22.777Z,73.28
2019-02-05T11:27:51.400Z,73.26
2019-02-05T11:30:34.855Z,74.16
2019-02-05T11:33:03.609Z,73.57
2019-02-05T11:35:32.489Z,72.79
2019-02-05T11:38:01.093Z,72.51
2019-02-05T11:40:32.315Z,73.10
2019-02-05T11:43:00.956Z,72.84
2019-02-05T11:45:29.673Z,73.26
2019-02-05T11:47:59.278Z,73.27
2019-02-05T11:50:27.879Z,73.41
2019-02-05T11:52:56.851Z,75.57
2019-02-05T11:55:35.392Z,72.65
2019-02-05T11:58:04.090Z,71.20
2019-02-05T12:00:34.440Z,71.02
2019-02-05T12:03:03.577Z,70.77
2019-02-05T12:05:32.166Z,71.46
2019-02-05T12:08:01.030Z,72.20
2019-02-05T12:10:29.617Z,72.43
2019-02-05T12:12:58.153Z,72.65
2019-02-05T12:15:27.436Z,73.03
2019-02-05T12:17:56.259Z,73.11
2019-02-05T12:20:24.905Z,73.45
2019-02-05T12:22:53.644Z,72.12
2019-02-05T12:25:25.402Z,72.76
2019-02-05T12:27:54.031Z,73.22
2019-02-05T12:30:25.584Z,72.77
2019-02-05T12:32:54.091Z,71.48
2019-02-05T12:35:22.790Z,72.16
2019-02-05T12:37:51.365Z,72.23
2019-02-05T12:40:20.526Z,72.19
2019-02-05T12:42:49.150Z,72.34
2019-02-05T12:45:31.874Z,72.51
2019-02-05T12:48:00.464Z,71.87
2019-02-05T12:50:31.371Z,71.64
2019-02-05T12:53:00.696Z,72.26
2019-02-05T12:55:29.271Z,72.19
2019-02-05T12:57:58.288Z,72.29
2019-02-05T13:00:32.302Z,72.25
2019-02-05T13:03:01.022Z,72.32
2019-02-05T13:05:30.039Z,73.16
2019-02-05T13:07:58.925Z,71.15
2019-02-05T13:10:30.504Z,72.13
2019-02-05T13:12:59.126Z,71.36
2019-02-05T13:15:27.713Z,72.91
2019-02-05T13:17:56.373Z,71.58
2019-02-05T13:20:30.248Z,73.18
2019-02-05T13:22:59.252Z,72.30
2019-02-05T13:25:31.818Z,71.11
2019-02-05T13:28:00.492Z,72.02
2019-02-05T13:30:31.135Z,72.49
2019-02-05T13:32:59.714Z,72.28
2019-02-05T13:35:28.920Z,72.13
2019-02-05T13:37:57.583Z,77.78
2019-02-05T13:40:27.973Z,77.78
2019-02-05T13:42:57.005Z,72.01
2019-02-05T13:45:28.583Z,70.58
2019-02-05T13:47:57.439Z,69.76
2019-02-05T13:50:33.455Z,71.12
2019-02-05T13:53:01.283Z,73.31
2019-02-05T13:55:36.031Z,73.14
2019-02-05T13:58:05.306Z,73.45
2019-02-05T14:00:36.643Z,72.96
2019-02-05T14:03:07.076Z,74.07
2019-02-05T14:05:35.774Z,73.29
2019-02-05T14:08:04.747Z,72.63
2019-02-05T14:10:36.260Z,71.27
2019-02-05T14:13:05.457Z,72.57
2019-02-05T14:15:36.640Z,73.98
2019-02-05T14:18:06.209Z,72.99
2019-02-05T14:20:34.844Z,70.61
2019-02-05T14:23:03.460Z,69.73
2019-02-05T14:25:32.030Z,70.49
2019-02-05T14:28:00.794Z,71.65
2019-02-05T14:30:34.804Z,71.66
2019-02-05T14:33:04.318Z,72.99
2019-02-05T14:35:33.011Z,73.56
2019-02-05T14:38:02.616Z,73.89
2019-02-05T14:40:31.211Z,74.05
2019-02-05T14:42:59.783Z,73.47
2019-02-05T14:45:28.490Z,71.87
2019-02-05T14:47:57.523Z,71.84
2019-02-05T14:50:28.572Z,72.78
2019-02-05T14:52:57.593Z,73.29
2019-02-05T14:55:26.130Z,70.64
2019-02-05T14:57:54.770Z,69.72
2019-02-05T15:00:34.772Z,70.13
2019-02-05T15:03:05.876Z,72.06
2019-02-05T15:05:34.514Z,72.42
2019-02-05T15:08:05.830Z,72.83
2019-02-05T15:10:33.551Z,72.75
2019-02-05T15:13:02.195Z,72.43
2019-02-05T15:15:31.150Z,72.05
2019-02-05T15:17:59.655Z,72.38
2019-02-05T15:20:40.128Z,72.11
2019-02-05T15:23:09.056Z,72.01
2019-02-05T15:25:37.868Z,71.98
2019-02-05T15:28:07.030Z,73.67
2019-02-05T15:30:38.779Z,70.47
2019-02-05T15:33:28.370Z,69.06
2019-02-05T15:35:58.633Z,69.81
2019-02-05T15:38:27.815Z,70.77
2019-02-05T15:40:56.437Z,71.89
2019-02-05T15:43:24.965Z,72.60
2019-02-05T15:45:53.588Z,72.69
2019-02-05T15:48:22.124Z,72.09
2019-02-05T15:50:50.768Z,71.62
2019-02-05T15:53:19.428Z,71.11
2019-02-05T15:55:47.970Z,70.56
2019-02-05T15:58:16.548Z,71.71
2019-02-05T16:00:45.110Z,73.47
2019-02-05T16:03:13.884Z,76.44
2019-02-05T16:05:42.917Z,71.99
2019-02-05T16:08:11.514Z,70.32
2019-02-05T16:10:40.407Z,69.74
2019-02-05T16:13:09.033Z,72.21
2019-02-05T16:15:37.692Z,72.43
2019-02-05T16:18:06.497Z,72.78
2019-02-05T16:20:35.150Z,72.96
2019-02-05T16:23:04.013Z,72.57
2019-02-05T16:25:33.600Z,72.65
2019-02-05T16:28:02.239Z,72.01
2019-02-05T16:30:31.640Z,72.83
2019-02-05T16:33:00.269Z,72.45
2019-02-05T16:35:28.904Z,72.74
2019-02-05T16:37:57.454Z,74.46
2019-02-05T16:40:28.441Z,73.06
2019-02-05T16:42:56.990Z,71.69
2019-02-05T16:45:28.023Z,71.43
2019-02-05T16:47:56.657Z,72.01
2019-02-05T16:50:30.727Z,71.69
2019-02-05T16:53:00.117Z,71.44
2019-02-05T16:55:29.033Z,71.88
2019-02-05T16:57:57.661Z,71.53
2019-02-05T17:00:34.547Z,71.94
2019-02-05T17:05:40.805Z,71.88
2019-02-05T17:08:09.776Z,72.12
2019-02-05T17:10:39.282Z,71.93
2019-02-05T17:13:07.887Z,72.46
2019-02-05T17:15:36.468Z,73.15
2019-02-05T17:18:05.374Z,71.79
2019-02-05T17:20:34.955Z,70.10
2019-02-05T17:23:04.431Z,70.01
2019-02-05T17:25:35.902Z,70.29
2019-02-05T17:28:05.996Z,71.71
2019-02-05T17:30:39.559Z,73.03
2019-02-05T17:33:08.180Z,73.10
2019-02-05T17:35:37.134Z,72.29
2019-02-05T17:38:07.648Z,72.29
2019-02-05T17:40:37.072Z,71.86
2019-02-05T17:43:06.291Z,71.47
2019-02-05T17:45:37.212Z,71.46
2019-02-05T17:48:09.021Z,71.29
2019-02-05T17:50:37.688Z,73.13
2019-02-05T17:53:06.305Z,70.59
2019-02-05T17:55:35.755Z,71.13
2019-02-05T17:58:04.360Z,69.52
2019-02-05T18:00:38.272Z,70.46
2019-02-05T18:03:07.001Z,71.61
2019-02-05T18:05:35.909Z,72.67
2019-02-05T18:08:04.943Z,72.96
2019-02-05T18:10:33.536Z,73.01
2019-02-05T18:13:02.156Z,72.46
2019-02-05T18:15:38.120Z,72.24
2019-02-05T18:18:07.544Z,72.04
2019-02-05T18:20:36.418Z,71.86
2019-02-05T18:23:05.349Z,71.68
2019-02-05T18:25:33.849Z,74.04
2019-02-05T18:28:02.428Z,70.79
2019-02-05T18:30:36.464Z,70.62
2019-02-05T18:33:05.988Z,71.64
2019-02-05T18:35:34.771Z,72.58
2019-02-05T18:38:08.437Z,71.56
2019-02-05T18:40:36.954Z,72.81
2019-02-05T18:43:05.659Z,72.94
2019-02-05T18:45:34.293Z,73.32
2019-02-05T18:48:02.875Z,73.05
2019-02-05T18:50:32.132Z,73.31
2019-02-05T18:53:00.775Z,73.33
2019-02-05T18:55:35.285Z,72.80
2019-02-05T18:58:09.545Z,72.84
2019-02-05T19:00:40.316Z,73.69
2019-02-05T19:03:15.454Z,73.44
2019-02-05T19:05:39.592Z,73.20
2019-02-05T19:08:08.418Z,72.65
2019-02-05T19:10:37.112Z,72.97
2019-02-05T19:13:05.794Z,73.54
2019-02-05T19:15:37.081Z,73.07
2019-02-05T19:18:06.751Z,73.50
2019-02-05T19:20:35.476Z,74.26
2019-02-05T19:23:05.603Z,73.54
2019-02-05T19:25:38.556Z,73.57
2019-02-05T19:28:07.554Z,73.15
2019-02-05T19:30:37.770Z,74.17
2019-02-05T19:33:06.418Z,73.97
2019-02-05T19:35:35.053Z,74.87
2019-02-05T19:38:03.637Z,74.38
2019-02-05T19:40:32.276Z,73.00
2019-02-05T19:43:01.178Z,72.56
2019-02-05T19:45:34.364Z,73.58
2019-02-05T19:48:04.679Z,73.64
2019-02-05T19:50:33.233Z,72.95
2019-02-05T19:53:01.945Z,73.35
2019-02-05T19:55:30.668Z,73.10
2019-02-05T19:57:59.507Z,73.62
2019-02-05T20:00:28.172Z,73.55
2019-02-05T20:02:56.873Z,72.94
2019-02-05T20:05:25.474Z,72.49
2019-02-05T20:07:54.182Z,72.63
2019-02-05T20:10:22.809Z,71.66
2019-02-05T20:12:51.322Z,76.89
2019-02-05T20:15:20.063Z,71.40
2019-02-05T20:17:48.718Z,70.34
2019-02-05T20:20:21.577Z,70.86
2019-02-05T20:22:50.576Z,72.52
2019-02-05T20:25:19.771Z,74.35
2019-02-05T20:27:48.535Z,74.97
2019-02-05T20:30:19.431Z,74.48
2019-02-05T20:32:48.014Z,73.64
2019-02-05T20:35:16.642Z,73.36
2019-02-05T20:37:45.329Z,73.25
2019-02-05T20:40:19.337Z,72.70
2019-02-05T20:42:47.949Z,73.28
2019-02-05T20:45:16.566Z,73.15
2019-02-05T20:47:45.165Z,77.84
2019-02-05T20:50:15.783Z,74.50
2019-02-05T20:52:44.371Z,72.54
2019-02-05T20:55:18.330Z,72.93
2019-02-05T20:57:46.927Z,72.84
2019-02-05T21:00:18.321Z,73.83
2019-02-05T21:02:47.036Z,74.71
2019-02-05T21:05:18.028Z,74.26
2019-02-05T21:07:46.707Z,73.90
2019-02-05T21:10:27.284Z,73.76
2019-02-05T21:12:55.966Z,73.33
2019-02-05T21:15:25.848Z,73.50
2019-02-05T21:17:54.557Z,73.59
2019-02-05T21:20:30.307Z,73.49
2019-02-05T21:22:58.785Z,74.74
2019-02-05T21:25:28.695Z,74.04
2019-02-05T21:27:58.454Z,72.64
2019-02-05T21:30:27.503Z,71.58
2019-02-05T21:32:56.128Z,72.81
2019-02-05T21:35:25.050Z,73.57
2019-02-05T21:37:53.670Z,74.78
2019-02-05T21:40:24.315Z,74.22
2019-02-05T21:42:52.920Z,74.37
2019-02-05T21:45:23.972Z,73.75
2019-02-05T21:47:53.104Z,74.41
2019-02-05T21:50:22.743Z,73.68
2019-02-05T21:52:51.944Z,74.01
2019-02-05T21:55:22.763Z,74.16
2019-02-05T21:57:51.475Z,74.76
2019-02-05T22:00:25.690Z,76.11
2019-02-05T22:02:54.574Z,72.67
2019-02-05T22:05:23.494Z,72.31
2019-02-05T22:07:52.119Z,71.50
2019-02-05T22:10:21.087Z,72.47
2019-02-05T22:12:49.892Z,73.87
2019-02-05T22:15:19.762Z,74.47
2019-02-05T22:17:48.375Z,74.47
2019-02-05T22:20:25.832Z,74.14
2019-02-05T22:22:56.191Z,73.87
2019-02-05T22:25:27.993Z,73.12
2019-02-05T22:27:56.601Z,73.13
2019-02-05T22:30:32.661Z,72.69
2019-02-05T22:33:01.346Z,72.47
2019-02-05T22:35:30.012Z,77.10
2019-02-05T22:37:58.592Z,72.20
2019-02-05T22:40:28.261Z,71.07
2019-02-05T22:42:57.248Z,71.80
2019-02-05T22:45:33.522Z,73.97
2019-02-05T22:48:02.203Z,75.04
2019-02-05T22:50:33.682Z,75.19
2019-02-05T22:53:04.174Z,74.91
2019-02-05T22:55:32.797Z,74.36
2019-02-05T22:58:01.433Z,74.60
2019-02-05T23:00:42.796Z,74.63
2019-02-05T23:03:11.773Z,74.70
2019-02-05T23:05:58.767Z,74.38
2019-02-05T23:08:27.493Z,74.44
2019-02-05T23:11:17.110Z,81.02
2019-02-05T23:13:45.706Z,74.62
2019-02-05T23:16:14.348Z,72.34
2019-02-05T23:18:42.966Z,72.26
2019-02-05T23:21:11.579Z,73.78
2019-02-05T23:23:40.248Z,74.89
2019-02-05T23:26:09.875Z,75.29
2019-02-05T23:28:38.550Z,74.58
2019-02-05T23:31:07.258Z,73.94
2019-02-05T23:33:35.900Z,74.07
2019-02-05T23:36:04.826Z,73.40
2019-02-05T23:38:33.438Z,73.54
2019-02-05T23:41:02.113Z,73.22
2019-02-05T23:43:31.127Z,72.79
2019-02-05T23:46:01.751Z,76.28
2019-02-05T23:48:30.061Z,74.78
2019-02-05T23:50:58.664Z,73.04
2019-02-05T23:53:27.265Z,72.25
2019-02-05T23:55:55.871Z,72.74
2019-02-05T23:58:24.508Z,74.12
